createdAt,value
2023-04-03T00:00:00.653Z,100.0
2023-04-03T00:01:01.163Z,100.0
2023-04-03T00:02:00.657Z,100.0
2023-04-03T00:03:00.707Z,100.0
2023-04-03T00:04:00.701Z,100.0
2023-04-03T00:05:00.714Z,100.0
2023-04-03T00:06:00.916Z,100.0
2023-04-03T00:07:00.661Z,100.0
2023-04-03T00:08:00.869Z,100.0
2023-04-03T00:09:00.675Z,100.0
2023-04-03T00:10:00.659Z,100.0
2023-04-03T00:11:01.124Z,100.0
2023-04-03T00:12:00.669Z,100.0
2023-04-03T00:13:00.652Z,100.0
2023-04-03T00:14:00.631Z,100.0
2023-04-03T00:15:00.697Z,100.0
2023-04-03T00:16:01.181Z,100.0
2023-04-03T00:17:00.656Z,100.0
2023-04-03T00:18:00.785Z,100.0
2023-04-03T00:19:00.629Z,100.0
2023-04-03T00:20:00.855Z,100.0
2023-04-03T00:21:00.731Z,100.0
2023-04-03T00:22:00.655Z,100.0
2023-04-03T00:23:01.382Z,100.0
2023-04-03T00:24:00.638Z,100.0
2023-04-03T00:25:00.644Z,100.0
2023-04-03T00:26:00.909Z,100.0
2023-04-03T00:27:00.639Z,100.0
2023-04-03T00:28:01.238Z,100.0
2023-04-03T00:29:00.639Z,100.0
2023-04-03T00:30:00.663Z,100.0
2023-04-03T00:31:00.668Z,100.0
2023-04-03T00:32:00.640Z,100.0
2023-04-03T00:33:00.937Z,100.0
2023-04-03T00:34:00.661Z,100.0
2023-04-03T00:35:00.686Z,100.0
2023-04-03T00:36:05.313Z,100.0
2023-04-03T00:37:00.745Z,100.0
2023-04-03T00:38:00.765Z,100.0
2023-04-03T00:39:00.641Z,100.0
2023-04-03T00:40:00.716Z,100.0
2023-04-03T00:41:00.686Z,100.0
2023-04-03T00:42:00.645Z,100.0
2023-04-03T00:43:00.647Z,100.0
2023-04-03T00:44:00.644Z,100.0
2023-04-03T00:45:00.622Z,100.0
2023-04-03T00:46:00.802Z,100.0
2023-04-03T00:47:01.541Z,100.0
2023-04-03T00:48:02.458Z,100.0
2023-04-03T00:49:00.682Z,100.0
2023-04-03T00:50:00.985Z,100.0
2023-04-03T00:51:02.218Z,100.0
2023-04-03T00:52:01.329Z,100.0
2023-04-03T00:53:01.629Z,100.0
2023-04-03T00:54:02.348Z,100.0
2023-04-03T00:55:02.779Z,100.0
2023-04-03T00:56:01.273Z,100.0
2023-04-03T00:57:00.766Z,100.0
2023-04-03T00:58:01.654Z,100.0
2023-04-03T00:59:00.610Z,100.0
2023-04-03T01:00:05.434Z,100.0
2023-04-03T01:01:03.424Z,100.0
2023-04-03T01:02:00.881Z,100.0
2023-04-03T01:03:00.855Z,100.0
2023-04-03T01:04:01.220Z,100.0
2023-04-03T01:05:00.683Z,100.0
2023-04-03T01:06:00.854Z,100.0
2023-04-03T01:07:04.273Z,100.0
2023-04-03T01:08:01.066Z,100.0
2023-04-03T01:09:00.945Z,100.0
2023-04-03T01:10:02.404Z,100.0
2023-04-03T01:11:00.681Z,100.0
2023-04-03T01:12:10.569Z,100.0
2023-04-03T01:13:00.681Z,100.0
2023-04-03T01:14:00.724Z,100.0
2023-04-03T01:15:04.167Z,100.0
2023-04-03T01:16:03.451Z,100.0
2023-04-03T01:17:00.703Z,100.0
2023-04-03T01:18:00.769Z,100.0
2023-04-03T01:19:01.320Z,100.0
2023-04-03T01:20:07.966Z,100.0
2023-04-03T01:21:00.644Z,100.0
2023-04-03T01:22:09.972Z,100.0
2023-04-03T01:23:10.595Z,100.0
2023-04-03T01:24:10.603Z,100.0
2023-04-03T01:25:01.289Z,100.0
2023-04-03T01:26:00.668Z,100.0
2023-04-03T01:27:02.585Z,100.0
2023-04-03T01:28:00.657Z,100.0
2023-04-03T01:29:00.693Z,100.0
2023-04-03T01:30:00.790Z,100.0
2023-04-03T01:31:10.601Z,100.0
2023-04-03T01:32:01.329Z,100.0
2023-04-03T01:33:00.813Z,100.0
2023-04-03T01:34:01.289Z,100.0
2023-04-03T01:35:00.673Z,100.0
2023-04-03T01:36:01.115Z,100.0
2023-04-03T01:37:00.668Z,100.0
2023-04-03T01:38:00.640Z,100.0
2023-04-03T01:39:00.734Z,100.0
2023-04-03T01:40:00.681Z,100.0
2023-04-03T01:41:00.877Z,100.0
2023-04-03T01:42:00.735Z,100.0
2023-04-03T01:43:00.644Z,100.0
2023-04-03T01:44:00.799Z,100.0
2023-04-03T01:45:00.688Z,100.0
2023-04-03T01:46:00.692Z,100.0
2023-04-03T01:47:00.696Z,100.0
2023-04-03T01:48:00.720Z,100.0
2023-04-03T01:49:00.929Z,100.0
2023-04-03T01:50:00.635Z,100.0
2023-04-03T01:51:00.652Z,100.0
2023-04-03T01:52:00.662Z,100.0
2023-04-03T01:53:00.650Z,100.0
2023-04-03T01:54:00.680Z,100.0
2023-04-03T01:55:00.641Z,100.0
2023-04-03T01:56:00.640Z,100.0
2023-04-03T01:57:00.722Z,100.0
2023-04-03T01:58:00.648Z,100.0
2023-04-03T01:59:00.654Z,100.0
2023-04-03T02:00:00.643Z,100.0
2023-04-03T02:01:00.670Z,100.0
2023-04-03T02:02:00.659Z,100.0
2023-04-03T02:03:00.723Z,100.0
2023-04-03T02:04:00.694Z,100.0
2023-04-03T02:05:00.777Z,100.0
2023-04-03T02:06:00.827Z,100.0
2023-04-03T02:07:00.679Z,100.0
2023-04-03T02:08:00.648Z,100.0
2023-04-03T02:09:00.646Z,100.0
2023-04-03T02:10:00.657Z,100.0
2023-04-03T02:11:00.641Z,100.0
2023-04-03T02:12:02.551Z,100.0
2023-04-03T02:13:00.709Z,100.0
2023-04-03T02:14:00.669Z,100.0
2023-04-03T02:15:00.679Z,100.0
2023-04-03T02:16:05.862Z,100.0
2023-04-03T02:17:01.143Z,100.0
2023-04-03T02:18:00.706Z,100.0
2023-04-03T02:19:00.629Z,100.0
2023-04-03T02:20:00.853Z,100.0
2023-04-03T02:21:00.632Z,100.0
2023-04-03T02:22:01.209Z,100.0
2023-04-03T02:23:00.665Z,100.0
2023-04-03T02:24:00.637Z,100.0
2023-04-03T02:25:00.652Z,100.0
2023-04-03T02:26:04.958Z,100.0
2023-04-03T02:27:00.627Z,100.0
2023-04-03T02:28:00.639Z,100.0
2023-04-03T02:29:00.641Z,100.0
2023-04-03T02:30:00.874Z,100.0
2023-04-03T02:31:00.686Z,100.0
2023-04-03T02:32:00.727Z,100.0
2023-04-03T02:33:00.720Z,100.0
2023-04-03T02:34:00.644Z,100.0
2023-04-03T02:35:00.618Z,100.0
2023-04-03T02:36:00.684Z,100.0
2023-04-03T02:37:00.643Z,100.0
2023-04-03T02:38:00.650Z,100.0
2023-04-03T02:39:00.645Z,100.0
2023-04-03T02:40:00.666Z,100.0
2023-04-03T02:41:01.556Z,100.0
2023-04-03T02:42:00.653Z,100.0
2023-04-03T02:43:00.641Z,100.0
2023-04-03T02:44:01.417Z,100.0
2023-04-03T02:45:00.765Z,100.0
2023-04-03T02:46:00.753Z,100.0
2023-04-03T02:47:00.643Z,100.0
2023-04-03T02:48:00.669Z,100.0
2023-04-03T02:49:00.662Z,100.0
2023-04-03T02:50:00.682Z,100.0
2023-04-03T02:51:00.672Z,100.0
2023-04-03T02:52:00.630Z,100.0
2023-04-03T02:53:01.039Z,100.0
2023-04-03T02:54:00.665Z,100.0
2023-04-03T02:55:00.687Z,100.0
2023-04-03T02:56:00.641Z,100.0
2023-04-03T02:57:00.684Z,100.0
2023-04-03T02:58:00.638Z,100.0
2023-04-03T02:59:00.656Z,100.0
2023-04-03T03:00:00.686Z,100.0
2023-04-03T03:01:00.712Z,100.0
2023-04-03T03:02:00.727Z,100.0
2023-04-03T03:03:00.732Z,100.0
2023-04-03T03:04:00.629Z,100.0
2023-04-03T03:05:00.685Z,100.0
2023-04-03T03:06:01.524Z,100.0
2023-04-03T03:07:01.177Z,100.0
2023-04-03T03:08:00.658Z,100.0
2023-04-03T03:09:00.683Z,100.0
2023-04-03T03:10:00.652Z,100.0
2023-04-03T03:11:00.683Z,100.0
2023-04-03T03:12:00.645Z,100.0
2023-04-03T03:13:00.656Z,100.0
2023-04-03T03:14:00.710Z,100.0
2023-04-03T03:15:00.695Z,100.0
2023-04-03T03:16:01.143Z,100.0
2023-04-03T03:17:00.627Z,100.0
2023-04-03T03:18:00.705Z,100.0
2023-04-03T03:19:00.676Z,100.0
2023-04-03T03:20:00.649Z,100.0
2023-04-03T03:21:01.332Z,100.0
2023-04-03T03:22:00.647Z,100.0
2023-04-03T03:23:00.623Z,100.0
2023-04-03T03:24:00.653Z,100.0
2023-04-03T03:25:00.798Z,100.0
2023-04-03T03:26:02.951Z,100.0
2023-04-03T03:27:00.654Z,100.0
2023-04-03T03:28:00.646Z,100.0
2023-04-03T03:29:00.625Z,100.0
2023-04-03T03:30:00.646Z,100.0
2023-04-03T03:31:00.730Z,100.0
2023-04-03T03:32:00.655Z,100.0
2023-04-03T03:33:00.797Z,100.0
2023-04-03T03:34:00.628Z,100.0
2023-04-03T03:35:00.668Z,100.0
2023-04-03T03:36:00.728Z,100.0
2023-04-03T03:37:00.649Z,100.0
2023-04-03T03:38:00.631Z,100.0
2023-04-03T03:39:00.658Z,100.0
2023-04-03T03:40:00.642Z,100.0
2023-04-03T03:41:00.654Z,100.0
2023-04-03T03:42:00.674Z,100.0
2023-04-03T03:43:00.795Z,100.0
2023-04-03T03:44:00.645Z,100.0
2023-04-03T03:45:00.640Z,100.0
2023-04-03T03:46:00.642Z,100.0
2023-04-03T03:47:00.674Z,100.0
2023-04-03T03:48:00.991Z,100.0
2023-04-03T03:49:00.665Z,100.0
2023-04-03T03:50:00.722Z,100.0
2023-04-03T03:51:00.629Z,100.0
2023-04-03T03:52:00.647Z,100.0
2023-04-03T03:53:00.838Z,100.0
2023-04-03T03:54:00.695Z,100.0
2023-04-03T03:55:00.669Z,100.0
2023-04-03T03:56:00.648Z,100.0
2023-04-03T03:57:00.728Z,100.0
2023-04-03T03:58:00.671Z,100.0
2023-04-03T03:59:00.641Z,100.0
2023-04-03T04:00:00.659Z,100.0
2023-04-03T04:01:01.466Z,100.0
2023-04-03T04:02:00.723Z,100.0
2023-04-03T04:03:00.726Z,100.0
2023-04-03T04:04:00.664Z,100.0
2023-04-03T04:05:00.645Z,100.0
2023-04-03T04:06:00.717Z,100.0
2023-04-03T04:07:00.637Z,100.0
2023-04-03T04:08:00.642Z,100.0
2023-04-03T04:09:00.648Z,100.0
2023-04-03T04:10:00.645Z,100.0
2023-04-03T04:11:00.642Z,100.0
2023-04-03T04:12:00.642Z,100.0
2023-04-03T04:13:00.639Z,100.0
2023-04-03T04:14:00.657Z,100.0
2023-04-03T04:15:00.764Z,100.0
2023-04-03T04:16:01.087Z,100.0
2023-04-03T04:17:00.702Z,100.0
2023-04-03T04:18:00.702Z,100.0
2023-04-03T04:19:00.640Z,100.0
2023-04-03T04:20:01.389Z,100.0
2023-04-03T04:21:00.679Z,100.0
2023-04-03T04:22:00.645Z,100.0
2023-04-03T04:23:00.651Z,100.0
2023-04-03T04:24:00.680Z,100.0
2023-04-03T04:25:00.653Z,100.0
2023-04-03T04:26:00.644Z,100.0
2023-04-03T04:27:00.673Z,100.0
2023-04-03T04:28:00.657Z,100.0
2023-04-03T04:29:00.761Z,100.0
2023-04-03T04:30:00.787Z,100.0
2023-04-03T04:31:00.677Z,100.0
2023-04-03T04:32:00.828Z,100.0
2023-04-03T04:33:00.684Z,100.0
2023-04-03T04:34:00.644Z,100.0
2023-04-03T04:35:00.705Z,100.0
2023-04-03T04:36:00.695Z,100.0
2023-04-03T04:37:00.780Z,100.0
2023-04-03T04:38:00.656Z,100.0
2023-04-03T04:39:00.756Z,100.0
2023-04-03T04:40:00.673Z,100.0
2023-04-03T04:41:00.713Z,100.0
2023-04-03T04:42:00.630Z,100.0
2023-04-03T04:43:00.678Z,100.0
2023-04-03T04:44:00.644Z,100.0
2023-04-03T04:45:00.646Z,100.0
2023-04-03T04:46:01.539Z,100.0
2023-04-03T04:47:00.622Z,100.0
2023-04-03T04:48:00.676Z,100.0
2023-04-03T04:49:00.629Z,100.0
2023-04-03T04:50:00.634Z,100.0
2023-04-03T04:51:00.984Z,100.0
2023-04-03T04:52:00.646Z,100.0
2023-04-03T04:53:00.656Z,100.0
2023-04-03T04:54:00.646Z,100.0
2023-04-03T04:55:00.674Z,100.0
2023-04-03T04:56:00.707Z,100.0
2023-04-03T04:57:00.663Z,100.0
2023-04-03T04:58:00.639Z,100.0
2023-04-03T04:59:00.851Z,100.0
2023-04-03T05:00:00.642Z,100.0
2023-04-03T05:01:01.342Z,100.0
2023-04-03T05:02:00.711Z,100.0
2023-04-03T05:03:00.734Z,100.0
2023-04-03T05:04:00.652Z,100.0
2023-04-03T05:05:01.951Z,100.0
2023-04-03T05:06:00.702Z,100.0
2023-04-03T05:07:00.656Z,100.0
2023-04-03T05:08:00.792Z,100.0
2023-04-03T05:09:01.100Z,100.0
2023-04-03T05:10:00.705Z,100.0
2023-04-03T05:11:00.664Z,100.0
2023-04-03T05:12:00.778Z,100.0
2023-04-03T05:13:00.632Z,100.0
2023-04-03T05:14:00.665Z,100.0
2023-04-03T05:15:00.735Z,100.0
2023-04-03T05:16:00.662Z,100.0
2023-04-03T05:17:00.654Z,100.0
2023-04-03T05:18:00.738Z,100.0
2023-04-03T05:19:00.718Z,100.0
2023-04-03T05:20:00.873Z,100.0
2023-04-03T05:21:00.642Z,100.0
2023-04-03T05:22:00.686Z,100.0
2023-04-03T05:23:00.669Z,100.0
2023-04-03T05:24:01.232Z,100.0
2023-04-03T05:25:00.628Z,100.0
2023-04-03T05:26:00.636Z,100.0
2023-04-03T05:27:00.654Z,100.0
2023-04-03T05:28:00.647Z,100.0
2023-04-03T05:29:00.691Z,100.0
2023-04-03T05:30:00.795Z,100.0
2023-04-03T05:31:00.647Z,100.0
2023-04-03T05:32:00.681Z,100.0
2023-04-03T05:33:00.724Z,100.0
2023-04-03T05:34:00.780Z,100.0
2023-04-03T05:35:01.458Z,100.0
2023-04-03T05:36:03.126Z,100.0
2023-04-03T05:37:00.674Z,100.0
2023-04-03T05:38:00.628Z,100.0
2023-04-03T05:39:00.731Z,100.0
2023-04-03T05:40:00.840Z,100.0
2023-04-03T05:41:00.626Z,100.0
2023-04-03T05:42:00.657Z,100.0
2023-04-03T05:43:00.643Z,100.0
2023-04-03T05:44:00.628Z,100.0
2023-04-03T05:45:00.640Z,100.0
2023-04-03T05:46:00.687Z,100.0
2023-04-03T05:47:00.718Z,100.0
2023-04-03T05:48:00.676Z,100.0
2023-04-03T05:49:00.635Z,100.0
2023-04-03T05:50:00.646Z,100.0
2023-04-03T05:51:00.643Z,100.0
2023-04-03T05:52:01.035Z,100.0
2023-04-03T05:53:01.987Z,100.0
2023-04-03T05:54:10.575Z,100.0
2023-04-03T05:55:00.673Z,100.0
2023-04-03T05:56:00.667Z,100.0
2023-04-03T05:57:00.659Z,100.0
2023-04-03T05:58:00.647Z,100.0
2023-04-03T05:59:00.654Z,100.0
2023-04-03T06:00:00.641Z,100.0
2023-04-03T06:01:00.802Z,100.0
2023-04-03T06:02:00.682Z,100.0
2023-04-03T06:03:00.781Z,100.0
2023-04-03T06:04:00.966Z,100.0
2023-04-03T06:05:00.667Z,100.0
2023-04-03T06:06:02.500Z,100.0
2023-04-03T06:07:00.651Z,100.0
2023-04-03T06:08:00.668Z,100.0
2023-04-03T06:09:02.668Z,100.0
2023-04-03T06:10:00.721Z,100.0
2023-04-03T06:11:00.784Z,100.0
2023-04-03T06:12:00.782Z,100.0
2023-04-03T06:13:00.677Z,100.0
2023-04-03T06:14:00.647Z,100.0
2023-04-03T06:15:00.660Z,100.0
2023-04-03T06:16:00.712Z,100.0
2023-04-03T06:17:00.774Z,100.0
2023-04-03T06:18:00.787Z,100.0
2023-04-03T06:19:00.745Z,100.0
2023-04-03T06:20:00.773Z,100.0
2023-04-03T06:21:00.644Z,100.0
2023-04-03T06:22:00.712Z,100.0
2023-04-03T06:23:00.753Z,100.0
2023-04-03T06:24:00.643Z,100.0
2023-04-03T06:25:01.057Z,100.0
2023-04-03T06:26:00.660Z,100.0
2023-04-03T06:27:00.782Z,100.0
2023-04-03T06:28:00.648Z,100.0
2023-04-03T06:29:00.634Z,100.0
2023-04-03T06:30:00.712Z,100.0
2023-04-03T06:31:00.710Z,100.0
2023-04-03T06:32:00.654Z,100.0
2023-04-03T06:33:00.706Z,100.0
2023-04-03T06:34:00.636Z,100.0
2023-04-03T06:35:00.685Z,100.0
2023-04-03T06:36:03.613Z,100.0
2023-04-03T06:37:00.641Z,100.0
2023-04-03T06:38:00.783Z,100.0
2023-04-03T06:39:00.831Z,100.0
2023-04-03T06:40:00.678Z,100.0
2023-04-03T06:41:00.628Z,100.0
2023-04-03T06:42:00.647Z,100.0
2023-04-03T06:43:01.060Z,100.0
2023-04-03T06:44:00.640Z,100.0
2023-04-03T06:45:00.668Z,100.0
2023-04-03T06:46:00.706Z,100.0
2023-04-03T06:47:01.000Z,100.0
2023-04-03T06:48:00.648Z,100.0
2023-04-03T06:49:00.640Z,100.0
2023-04-03T06:50:00.644Z,100.0
2023-04-03T06:51:00.648Z,100.0
2023-04-03T06:52:01.733Z,100.0
2023-04-03T06:53:00.669Z,100.0
2023-04-03T06:54:00.790Z,100.0
2023-04-03T06:55:00.765Z,100.0
2023-04-03T06:56:00.650Z,100.0
2023-04-03T06:57:00.762Z,100.0
2023-04-03T06:58:00.624Z,100.0
2023-04-03T06:59:00.633Z,100.0
2023-04-03T07:00:00.998Z,100.0
2023-04-03T07:01:00.656Z,100.0
2023-04-03T07:02:00.685Z,100.0
2023-04-03T07:03:00.674Z,100.0
2023-04-03T07:04:00.636Z,100.0
2023-04-03T07:05:00.674Z,100.0
2023-04-03T07:06:00.652Z,100.0
2023-04-03T07:07:00.620Z,100.0
2023-04-03T07:08:00.664Z,100.0
2023-04-03T07:09:00.736Z,100.0
2023-04-03T07:10:00.802Z,100.0
2023-04-03T07:11:00.753Z,100.0
2023-04-03T07:12:00.653Z,100.0
2023-04-03T07:13:00.649Z,100.0
2023-04-03T07:14:00.634Z,100.0
2023-04-03T07:15:00.669Z,100.0
2023-04-03T07:16:00.908Z,100.0
2023-04-03T07:17:00.662Z,100.0
2023-04-03T07:18:00.720Z,100.0
2023-04-03T07:19:00.878Z,100.0
2023-04-03T07:20:00.623Z,100.0
2023-04-03T07:21:01.335Z,100.0
2023-04-03T07:22:00.730Z,100.0
2023-04-03T07:23:02.767Z,100.0
2023-04-03T07:24:00.642Z,100.0
2023-04-03T07:25:00.660Z,100.0
2023-04-03T07:26:00.660Z,100.0
2023-04-03T07:27:00.631Z,100.0
2023-04-03T07:28:00.705Z,100.0
2023-04-03T07:29:00.641Z,100.0
2023-04-03T07:30:00.661Z,100.0
2023-04-03T07:31:02.152Z,100.0
2023-04-03T07:32:01.126Z,100.0
2023-04-03T07:33:00.719Z,100.0
2023-04-03T07:34:00.641Z,100.0
2023-04-03T07:35:01.793Z,100.0
2023-04-03T07:36:01.766Z,100.0
2023-04-03T07:37:00.648Z,100.0
2023-04-03T07:38:00.640Z,100.0
2023-04-03T07:39:00.639Z,100.0
2023-04-03T07:40:00.806Z,100.0
2023-04-03T07:41:00.658Z,100.0
2023-04-03T07:42:00.800Z,100.0
2023-04-03T07:43:00.660Z,100.0
2023-04-03T07:44:00.627Z,100.0
2023-04-03T07:45:01.077Z,100.0
2023-04-03T07:46:00.684Z,100.0
2023-04-03T07:47:00.678Z,100.0
2023-04-03T07:48:00.939Z,100.0
2023-04-03T07:49:00.644Z,100.0
2023-04-03T07:50:00.655Z,100.0
2023-04-03T07:51:01.824Z,100.0
2023-04-03T07:52:00.656Z,100.0
2023-04-03T07:53:00.649Z,100.0
2023-04-03T07:54:00.656Z,100.0
2023-04-03T07:55:00.634Z,100.0
2023-04-03T07:56:00.665Z,100.0
2023-04-03T07:57:00.645Z,100.0
2023-04-03T07:58:00.644Z,100.0
2023-04-03T07:59:00.628Z,100.0
2023-04-03T08:00:00.961Z,100.0
2023-04-03T08:01:00.643Z,100.0
2023-04-03T08:02:00.666Z,100.0
2023-04-03T08:03:00.766Z,100.0
2023-04-03T08:04:01.019Z,100.0
2023-04-03T08:05:00.732Z,100.0
2023-04-03T08:06:02.208Z,100.0
2023-04-03T08:07:00.724Z,100.0
2023-04-03T08:08:00.635Z,100.0
2023-04-03T08:09:00.992Z,100.0
2023-04-03T08:10:00.626Z,100.0
2023-04-03T08:11:01.028Z,100.0
2023-04-03T08:12:00.659Z,100.0
2023-04-03T08:13:01.178Z,100.0
2023-04-03T08:14:00.635Z,100.0
2023-04-03T08:15:00.797Z,100.0
2023-04-03T08:16:07.370Z,100.0
2023-04-03T08:17:00.678Z,100.0
2023-04-03T08:18:00.859Z,100.0
2023-04-03T08:19:00.662Z,100.0
2023-04-03T08:20:00.818Z,100.0
2023-04-03T08:21:00.663Z,100.0
2023-04-03T08:22:00.897Z,100.0
2023-04-03T08:23:00.654Z,100.0
2023-04-03T08:24:00.640Z,100.0
2023-04-03T08:25:00.747Z,100.0
2023-04-03T08:26:05.465Z,100.0
2023-04-03T08:27:00.738Z,100.0
2023-04-03T08:28:00.656Z,100.0
2023-04-03T08:29:00.767Z,100.0
2023-04-03T08:30:00.666Z,100.0
2023-04-03T08:31:10.184Z,100.0
2023-04-03T08:32:00.642Z,100.0
2023-04-03T08:33:01.125Z,100.0
2023-04-03T08:34:00.651Z,100.0
2023-04-03T08:35:00.716Z,100.0
2023-04-03T08:36:00.666Z,100.0
2023-04-03T08:37:01.040Z,100.0
2023-04-03T08:38:00.646Z,100.0
2023-04-03T08:39:00.692Z,100.0
2023-04-03T08:40:00.649Z,100.0
2023-04-03T08:41:10.575Z,100.0
2023-04-03T08:42:02.736Z,100.0
2023-04-03T08:43:09.918Z,100.0
2023-04-03T08:44:07.596Z,100.0
2023-04-03T08:45:03.909Z,100.0
2023-04-03T08:46:03.213Z,100.0
2023-04-03T08:47:04.245Z,100.0
2023-04-03T08:48:10.639Z,100.0
2023-04-03T08:49:00.708Z,100.0
2023-04-03T08:50:02.033Z,100.0
2023-04-03T08:51:03.644Z,100.0
2023-04-03T08:52:02.941Z,100.0
2023-04-03T08:53:01.091Z,100.0
2023-04-03T08:54:03.689Z,100.0
2023-04-03T08:55:02.539Z,100.0
2023-04-03T08:56:06.627Z,100.0
2023-04-03T08:57:02.553Z,100.0
2023-04-03T08:58:01.730Z,100.0
2023-04-03T08:59:04.110Z,100.0
2023-04-03T09:00:02.936Z,100.0
2023-04-03T09:01:02.314Z,100.0
2023-04-03T09:02:02.049Z,100.0
2023-04-03T09:03:00.714Z,100.0
2023-04-03T09:04:01.705Z,100.0
2023-04-03T09:05:01.917Z,100.0
2023-04-03T09:06:05.840Z,100.0
2023-04-03T09:07:10.560Z,100.0
2023-04-03T09:08:04.300Z,100.0
2023-04-03T09:09:10.581Z,100.0
2023-04-03T09:10:00.932Z,100.0
2023-04-03T09:11:10.577Z,100.0
2023-04-03T09:12:00.611Z,100.0
2023-04-03T09:13:10.569Z,100.0
2023-04-03T09:14:04.405Z,100.0
2023-04-03T09:15:05.293Z,100.0
2023-04-03T09:16:02.439Z,100.0
2023-04-03T09:17:04.584Z,100.0
2023-04-03T09:18:10.592Z,100.0
2023-04-03T09:19:10.654Z,100.0
2023-04-03T09:20:10.561Z,100.0
2023-04-03T09:21:07.376Z,100.0
2023-04-03T09:22:09.565Z,100.0
2023-04-03T09:23:01.266Z,100.0
2023-04-03T09:24:01.460Z,100.0
2023-04-03T09:25:05.044Z,100.0
2023-04-03T09:26:10.563Z,100.0
2023-04-03T09:27:04.331Z,100.0
2023-04-03T09:28:00.695Z,100.0
2023-04-03T09:29:04.656Z,100.0
2023-04-03T09:30:00.851Z,100.0
2023-04-03T09:31:01.906Z,100.0
2023-04-03T09:32:01.659Z,100.0
2023-04-03T09:33:00.766Z,100.0
2023-04-03T09:34:02.543Z,100.0
2023-04-03T09:35:09.632Z,100.0
2023-04-03T09:36:00.649Z,100.0
2023-04-03T09:37:01.546Z,100.0
2023-04-03T09:38:10.576Z,99.3
2023-04-03T09:39:10.580Z,99.3
2023-04-03T09:40:00.626Z,100.0
2023-04-03T09:41:01.638Z,100.0
2023-04-03T09:42:02.060Z,97.5
2023-04-03T09:43:02.518Z,97.5
2023-04-03T09:44:00.646Z,98.9
2023-04-03T09:45:02.556Z,98.9
2023-04-03T09:46:10.612Z,100.0
2023-04-03T09:47:10.659Z,100.0
2023-04-03T09:48:06.693Z,100.0
2023-04-03T09:49:08.790Z,100.0
2023-04-03T09:50:10.574Z,99.1
2023-04-03T09:51:01.474Z,99.1
2023-04-03T09:52:10.577Z,100.0
2023-04-03T09:53:04.653Z,100.0
2023-04-03T09:54:10.567Z,100.0
2023-04-03T09:55:07.932Z,100.0
2023-04-03T09:56:01.315Z,92.9
2023-04-03T09:57:05.969Z,92.9
2023-04-03T09:58:01.962Z,98.1
2023-04-03T09:59:06.826Z,98.1
2023-04-03T10:00:01.804Z,100.0
2023-04-03T10:01:01.398Z,100.0
2023-04-03T10:02:03.472Z,100.0
2023-04-03T10:03:00.700Z,100.0
2023-04-03T10:04:09.628Z,97.4
2023-04-03T10:05:09.444Z,97.4
2023-04-03T10:06:01.901Z,98.3
2023-04-03T10:07:00.655Z,98.3
2023-04-03T10:08:10.686Z,100.0
2023-04-03T10:09:02.610Z,100.0
2023-04-03T10:10:02.849Z,84.8
2023-04-03T10:11:10.587Z,84.8
2023-04-03T10:12:02.608Z,85.5
2023-04-03T10:13:06.645Z,85.5
2023-04-03T10:14:01.886Z,87.2
2023-04-03T10:15:00.913Z,87.2
2023-04-03T10:16:07.441Z,80.0
2023-04-03T10:17:01.671Z,80.0
2023-04-03T10:18:11.390Z,82.3
2023-04-03T10:19:10.604Z,82.3
2023-04-03T10:20:06.586Z,77.9
2023-04-03T10:21:07.600Z,77.9
2023-04-03T10:22:10.572Z,66.2
2023-04-03T10:23:00.624Z,66.2
2023-04-03T10:24:10.207Z,64.4
2023-04-03T10:25:10.557Z,64.4
2023-04-03T10:26:07.983Z,78.8
2023-04-03T10:27:01.672Z,78.8
2023-04-03T10:28:02.076Z,68.4
2023-04-03T10:29:07.973Z,68.4
2023-04-03T10:30:01.694Z,76.3
2023-04-03T10:31:10.623Z,76.3
2023-04-03T10:32:10.578Z,72.2
2023-04-03T10:33:10.639Z,72.2
2023-04-03T10:34:10.558Z,71.4
2023-04-03T10:35:10.575Z,71.4
2023-04-03T10:36:10.626Z,70.1
2023-04-03T10:37:01.665Z,70.1
2023-04-03T10:38:00.644Z,70.9
2023-04-03T10:39:05.771Z,70.9
2023-04-03T10:40:10.596Z,69.5
2023-04-03T10:41:05.486Z,69.5
2023-04-03T10:42:15.656Z,66.0
2023-04-03T10:43:10.567Z,66.0
2023-04-03T10:44:10.562Z,68.5
2023-04-03T10:45:01.660Z,68.5
2023-04-03T10:46:09.994Z,63.2
2023-04-03T10:47:08.015Z,63.2
2023-04-03T10:48:10.653Z,73.3
2023-04-03T10:49:10.521Z,73.3
2023-04-03T10:50:10.585Z,69.2
2023-04-03T10:51:08.740Z,69.2
2023-04-03T10:52:06.146Z,66.1
2023-04-03T10:53:10.584Z,66.1
2023-04-03T10:54:05.336Z,60.4
2023-04-03T10:55:01.646Z,60.4
2023-04-03T10:56:06.440Z,66.9
2023-04-03T10:57:11.735Z,66.9
2023-04-03T10:58:01.483Z,67.6
2023-04-03T10:59:07.789Z,67.6
2023-04-03T11:00:03.134Z,64.8
2023-04-03T11:01:08.611Z,64.8
2023-04-03T11:02:06.253Z,61.8
2023-04-03T11:03:05.376Z,61.8
2023-04-03T11:04:01.264Z,62.3
2023-04-03T11:05:02.605Z,62.3
2023-04-03T11:06:02.254Z,65.2
2023-04-03T11:07:00.648Z,65.2
2023-04-03T11:08:04.516Z,61.2
2023-04-03T11:09:02.475Z,61.2
2023-04-03T11:10:03.220Z,59.1
2023-04-03T11:11:05.472Z,59.1
2023-04-03T11:12:03.984Z,61.1
2023-04-03T11:13:06.752Z,61.1
2023-04-03T11:14:03.023Z,59.5
2023-04-03T11:15:01.723Z,59.5
2023-04-03T11:16:02.469Z,67.1
2023-04-03T11:17:05.634Z,67.1
2023-04-03T11:18:06.344Z,64.9
2023-04-03T11:19:10.586Z,64.9
2023-04-03T11:20:10.120Z,66.6
2023-04-03T11:21:02.793Z,66.6
2023-04-03T11:22:04.148Z,70.1
2023-04-03T11:23:02.983Z,70.1
2023-04-03T11:24:02.664Z,58.2
2023-04-03T11:25:10.565Z,58.2
2023-04-03T11:26:06.761Z,59.2
2023-04-03T11:27:01.702Z,59.2
2023-04-03T11:28:02.836Z,56.8
2023-04-03T11:29:05.028Z,56.8
2023-04-03T11:30:01.312Z,63.5
2023-04-03T11:31:10.654Z,63.5
2023-04-03T11:32:08.841Z,77.0
2023-04-03T11:33:10.632Z,77.0
2023-04-03T11:34:01.662Z,62.7
2023-04-03T11:35:02.692Z,62.7
2023-04-03T11:36:19.021Z,66.3
2023-04-03T11:37:01.374Z,66.3
2023-04-03T11:38:02.236Z,64.2
2023-04-03T11:39:06.886Z,64.2
2023-04-03T11:40:03.889Z,77.7
2023-04-03T11:41:01.640Z,77.7
2023-04-03T11:42:13.269Z,74.3
2023-04-03T11:43:10.575Z,74.3
2023-04-03T11:44:03.957Z,74.1
2023-04-03T11:45:10.595Z,74.1
2023-04-03T11:46:01.429Z,68.2
2023-04-03T11:47:01.483Z,68.2
2023-04-03T11:48:13.344Z,65.6
2023-04-03T11:49:00.669Z,65.6
2023-04-03T11:50:04.420Z,68.1
2023-04-03T11:51:01.625Z,68.1
2023-04-03T11:52:00.659Z,71.2
2023-04-03T11:53:10.592Z,71.2
2023-04-03T11:54:10.605Z,70.8
2023-04-03T11:55:00.835Z,70.8
2023-04-03T11:56:02.499Z,61.3
2023-04-03T11:57:10.622Z,61.3
2023-04-03T11:58:00.640Z,64.0
2023-04-03T11:59:10.561Z,64.0
2023-04-03T12:00:01.687Z,67.9
2023-04-03T12:01:02.078Z,67.9
2023-04-03T12:02:00.664Z,70.2
2023-04-03T12:03:00.785Z,70.2
2023-04-03T12:04:07.229Z,61.6
2023-04-03T12:05:10.595Z,61.6
2023-04-03T12:06:08.328Z,72.5
2023-04-03T12:07:02.419Z,72.5
2023-04-03T12:08:10.558Z,74.2
2023-04-03T12:09:00.680Z,74.2
2023-04-03T12:10:00.708Z,72.6
2023-04-03T12:11:10.755Z,72.6
2023-04-03T12:12:10.560Z,71.3
2023-04-03T12:13:01.164Z,71.3
2023-04-03T12:14:00.625Z,80.2
2023-04-03T12:15:10.570Z,80.2
2023-04-03T12:16:01.689Z,76.6
2023-04-03T12:17:00.800Z,76.6
2023-04-03T12:18:10.637Z,71.4
2023-04-03T12:19:01.958Z,71.4
2023-04-03T12:20:00.689Z,78.1
2023-04-03T12:21:00.628Z,78.1
2023-04-03T12:22:00.618Z,75.6
2023-04-03T12:23:10.566Z,75.6
2023-04-03T12:24:00.643Z,75.4
2023-04-03T12:25:10.575Z,75.4
2023-04-03T12:26:03.333Z,81.0
2023-04-03T12:27:00.636Z,81.0
2023-04-03T12:28:00.752Z,85.6
2023-04-03T12:29:10.282Z,85.6
2023-04-03T12:30:00.639Z,73.2
2023-04-03T12:31:01.931Z,73.2
2023-04-03T12:32:03.902Z,65.0
2023-04-03T12:33:12.560Z,65.0
2023-04-03T12:34:10.569Z,78.4
2023-04-03T12:35:10.600Z,78.4
2023-04-03T12:36:07.105Z,76.2
2023-04-03T12:37:08.522Z,76.2
2023-04-03T12:38:01.669Z,80.6
2023-04-03T12:39:03.881Z,80.6
2023-04-03T12:40:08.060Z,80.6
2023-04-03T12:41:10.587Z,80.6
2023-04-03T12:42:10.592Z,80.0
2023-04-03T12:43:10.568Z,80.0
2023-04-03T12:44:10.581Z,77.1
2023-04-03T12:45:10.569Z,77.1
2023-04-03T12:46:01.759Z,90.6
2023-04-03T12:47:01.947Z,90.6
2023-04-03T12:48:02.029Z,79.6
2023-04-03T12:49:01.158Z,79.6
2023-04-03T12:50:01.468Z,72.4
2023-04-03T12:51:02.016Z,72.4
2023-04-03T12:52:02.469Z,72.7
2023-04-03T12:53:10.586Z,72.7
2023-04-03T12:54:03.955Z,73.0
2023-04-03T12:55:01.392Z,73.0
2023-04-03T12:56:10.584Z,76.0
2023-04-03T12:57:10.571Z,76.0
2023-04-03T12:58:10.575Z,73.6